sensor_id;sensor_type;location;lat;lon;timestamp;pressure;altitude;pressure_sealevel;temperature;humidity
37852;BME280;23691;52.486;4.650;2022-12-16T00:02:11;101127.00;;;2.55;83.01
37852;BME280;23691;52.486;4.650;2022-12-16T00:05:01;101128.72;;;2.56;83.04
37852;BME280;23691;52.486;4.650;2022-12-16T00:07:51;101136.09;;;2.51;82.86
37852;BME280;23691;52.486;4.650;2022-12-16T00:10:48;101133.34;;;2.52;82.88
37852;BME280;23691;52.486;4.650;2022-12-16T00:13:46;101142.25;;;2.51;82.80
37852;BME280;23691;52.486;4.650;2022-12-16T00:16:36;101138.63;;;2.52;82.54
37852;BME280;23691;52.486;4.650;2022-12-16T00:19:26;101138.63;;;2.52;82.46
37852;BME280;23691;52.486;4.650;2022-12-16T00:22:16;101139.28;;;2.56;82.11
37852;BME280;23691;52.486;4.650;2022-12-16T00:25:07;101148.13;;;2.55;82.05
37852;BME280;23691;52.486;4.650;2022-12-16T00:27:59;101142.25;;;2.51;81.95
37852;BME280;23691;52.486;4.650;2022-12-16T00:30:51;101152.97;;;2.48;81.93
37852;BME280;23691;52.486;4.650;2022-12-16T00:33:43;101144.13;;;2.49;82.33
37852;BME280;23691;52.486;4.650;2022-12-16T00:36:36;101153.09;;;2.47;82.03
37852;BME280;23691;52.486;4.650;2022-12-16T00:39:26;101145.41;;;2.44;82.27
37852;BME280;23691;52.486;4.650;2022-12-16T00:42:17;101151.72;;;2.41;81.93
37852;BME280;23691;52.486;4.650;2022-12-16T00:45:08;101155.41;;;2.39;82.18
37852;BME280;23691;52.486;4.650;2022-12-16T00:47:59;101154.88;;;2.33;81.89
37852;BME280;23691;52.486;4.650;2022-12-16T00:50:53;101154.34;;;2.28;82.15
37852;BME280;23691;52.486;4.650;2022-12-16T00:53:44;101159.09;;;2.23;82.00
37852;BME280;23691;52.486;4.650;2022-12-16T00:56:35;101154.84;;;2.21;82.37
37852;BME280;23691;52.486;4.650;2022-12-16T00:59:26;101171.44;;;2.23;82.07
37852;BME280;23691;52.486;4.650;2022-12-16T01:02:17;101159.00;;;2.25;81.92
37852;BME280;23691;52.486;4.650;2022-12-16T01:05:09;101160.06;;;2.22;82.13
37852;BME280;23691;52.486;4.650;2022-12-16T01:08:00;101166.38;;;2.20;82.02
37852;BME280;23691;52.486;4.650;2022-12-16T01:10:55;101168.38;;;2.16;81.83
37852;BME280;23691;52.486;4.650;2022-12-16T01:13:53;101169.53;;;2.12;81.64
37852;BME280;23691;52.486;4.650;2022-12-16T01:16:44;101176.91;;;2.07;81.54
37852;BME280;23691;52.486;4.650;2022-12-16T01:19:35;101179.84;;;2.02;81.58
37852;BME280;23691;52.486;4.650;2022-12-16T01:22:29;101179.84;;;2.02;81.97
37852;BME280;23691;52.486;4.650;2022-12-16T01:25:21;101179.94;;;2.01;81.42
37852;BME280;23691;52.486;4.650;2022-12-16T01:28:12;101184.47;;;1.99;81.67
37852;BME280;23691;52.486;4.650;2022-12-16T01:31:02;101185.44;;;1.98;81.27
37852;BME280;23691;52.486;4.650;2022-12-16T01:33:53;101192.38;;;1.99;81.54
37852;BME280;23691;52.486;4.650;2022-12-16T01:36:44;101198.41;;;2.01;81.03
37852;BME280;23691;52.486;4.650;2022-12-16T01:39:35;101198.50;;;1.99;80.84
37852;BME280;23691;52.486;4.650;2022-12-16T01:42:27;101202.03;;;2.00;81.24
37852;BME280;23691;52.486;4.650;2022-12-16T01:45:32;101206.44;;;1.99;81.04
37852;BME280;23691;52.486;4.650;2022-12-16T01:48:34;101210.22;;;1.95;80.82
37852;BME280;23691;52.486;4.650;2022-12-16T01:51:35;101207.69;;;1.93;80.62
37852;BME280;23691;52.486;4.650;2022-12-16T01:54:51;101213.91;;;1.92;80.28
37852;BME280;23691;52.486;4.650;2022-12-16T01:57:50;101223.72;;;1.90;80.37
37852;BME280;23691;52.486;4.650;2022-12-16T02:00:43;101219.38;;;1.89;80.10
37852;BME280;23691;52.486;4.650;2022-12-16T02:03:35;101222.13;;;1.88;80.24
37852;BME280;23691;52.486;4.650;2022-12-16T02:06:27;101228.34;;;1.87;79.81
37852;BME280;23691;52.486;4.650;2022-12-16T02:09:18;101227.63;;;1.85;79.74
37852;BME280;23691;52.486;4.650;2022-12-16T02:12:51;101224.22;;;1.83;79.63
37852;BME280;23691;52.486;4.650;2022-12-16T02:19:26;101229.50;;;1.83;79.63
37852;BME280;23691;52.486;4.650;2022-12-16T02:26:18;101236.75;;;1.79;79.42
37852;BME280;23691;52.486;4.650;2022-12-16T02:32:39;101244.09;;;1.74;79.29
37852;BME280;23691;52.486;4.650;2022-12-16T02:35:52;101244.22;;;1.73;78.90
37852;BME280;23691;52.486;4.650;2022-12-16T02:39:29;101242.44;;;1.73;79.09
37852;BME280;23691;52.486;4.650;2022-12-16T02:42:31;101239.88;;;1.71;78.86
37852;BME280;23691;52.486;4.650;2022-12-16T02:45:28;101239.78;;;1.73;78.89
37852;BME280;23691;52.486;4.650;2022-12-16T02:48:20;101245.81;;;1.75;78.56
37852;BME280;23691;52.486;4.650;2022-12-16T02:51:10;101245.91;;;1.74;78.45
37852;BME280;23691;52.486;4.650;2022-12-16T02:54:00;101248.00;;;1.68;78.54
37852;BME280;23691;52.486;4.650;2022-12-16T03:00:11;101254.03;;;1.70;78.51
37852;BME280;23691;52.486;4.650;2022-12-16T03:03:36;101260.97;;;1.71;78.33
37852;BME280;23691;52.486;4.650;2022-12-16T03:06:32;101268.25;;;1.68;78.03
37852;BME280;23691;52.486;4.650;2022-12-16T03:09:28;101266.66;;;1.65;78.06
37852;BME280;23691;52.486;4.650;2022-12-16T03:12:20;101282.56;;;1.64;77.97
37852;BME280;23691;52.486;4.650;2022-12-16T03:15:22;101287.94;;;1.62;77.83
37852;BME280;23691;52.486;4.650;2022-12-16T03:18:15;101290.75;;;1.59;77.26
37852;BME280;23691;52.486;4.650;2022-12-16T03:21:11;101291.06;;;1.55;77.27
37852;BME280;23691;52.486;4.650;2022-12-16T03:24:07;101293.13;;;1.49;77.51
37852;BME280;23691;52.486;4.650;2022-12-16T03:27:10;101287.28;;;1.44;77.66
37852;BME280;23691;52.486;4.650;2022-12-16T03:30:06;101285.69;;;1.42;77.29
37852;BME280;23691;52.486;4.650;2022-12-16T03:33:16;101291.91;;;1.41;77.54
37852;BME280;23691;52.486;4.650;2022-12-16T03:36:18;101292.19;;;1.36;77.56
37852;BME280;23691;52.486;4.650;2022-12-16T03:39:09;101300.09;;;1.36;77.61
37852;BME280;23691;52.486;4.650;2022-12-16T03:42:02;101297.47;;;1.36;77.40
37852;BME280;23691;52.486;4.650;2022-12-16T03:44:53;101303.78;;;1.34;77.50
37852;BME280;23691;52.486;4.650;2022-12-16T03:47:51;101298.72;;;1.31;77.64
37852;BME280;23691;52.486;4.650;2022-12-16T03:50:42;101299.53;;;1.31;77.53
37852;BME280;23691;52.486;4.650;2022-12-16T03:53:32;101302.19;;;1.31;77.34
37852;BME280;23691;52.486;4.650;2022-12-16T03:56:22;101301.34;;;1.31;77.65
37852;BME280;23691;52.486;4.650;2022-12-16T03:59:12;101305.56;;;1.33;77.31
37852;BME280;23691;52.486;4.650;2022-12-16T04:02:03;101304.81;;;1.31;77.37
37852;BME280;23691;52.486;4.650;2022-12-16T04:04:54;101305.84;;;1.28;77.34
37852;BME280;23691;52.486;4.650;2022-12-16T04:07:45;101306.97;;;1.24;77.38
37852;BME280;23691;52.486;4.650;2022-12-16T04:10:42;101314.22;;;1.21;77.18
37852;BME280;23691;52.486;4.650;2022-12-16T04:13:58;101306.69;;;1.15;77.29
37852;BME280;23691;52.486;4.650;2022-12-16T04:17:10;101306.88;;;1.12;77.49
37852;BME280;23691;52.486;4.650;2022-12-16T04:20:29;101308.09;;;1.06;77.14
37852;BME280;23691;52.486;4.650;2022-12-16T04:23:54;101319.75;;;1.02;77.25
37852;BME280;23691;52.486;4.650;2022-12-16T04:27:07;101317.47;;;0.96;77.05
37852;BME280;23691;52.486;4.650;2022-12-16T04:30:18;101322.91;;;0.93;77.01
37852;BME280;23691;52.486;4.650;2022-12-16T04:33:11;101325.75;;;0.90;77.09
37852;BME280;23691;52.486;4.650;2022-12-16T04:36:22;101325.81;;;0.88;77.20
37852;BME280;23691;52.486;4.650;2022-12-16T04:39:32;101330.16;;;0.89;77.39
37852;BME280;23691;52.486;4.650;2022-12-16T04:42:56;101339.75;;;0.90;77.48
37852;BME280;23691;52.486;4.650;2022-12-16T04:46:06;101351.25;;;0.89;77.37
37852;BME280;23691;52.486;4.650;2022-12-16T04:49:15;101358.13;;;0.92;77.52
37852;BME280;23691;52.486;4.650;2022-12-16T04:52:31;101354.47;;;0.94;77.48
37852;BME280;23691;52.486;4.650;2022-12-16T04:55:41;101359.63;;;0.96;77.54
37852;BME280;23691;52.486;4.650;2022-12-16T04:58:51;101357.75;;;0.98;77.50
37852;BME280;23691;52.486;4.650;2022-12-16T05:02:00;101349.84;;;0.98;77.36
37852;BME280;23691;52.486;4.650;2022-12-16T05:05:09;101357.56;;;1.01;77.37
37852;BME280;23691;52.486;4.650;2022-12-16T05:08:18;101366.22;;;1.03;77.70
37852;BME280;23691;52.486;4.650;2022-12-16T05:11:34;101359.94;;;1.05;77.28
37852;BME280;23691;52.486;4.650;2022-12-16T05:14:43;101373.88;;;1.07;77.79
37852;BME280;23691;52.486;4.650;2022-12-16T05:17:53;101373.78;;;1.09;77.55
37852;BME280;23691;52.486;4.650;2022-12-16T05:21:14;101376.31;;;1.11;77.76
37852;BME280;23691;52.486;4.650;2022-12-16T05:24:23;101381.59;;;1.11;77.74
37852;BME280;23691;52.486;4.650;2022-12-16T05:27:32;101381.59;;;1.11;77.68
37852;BME280;23691;52.486;4.650;2022-12-16T05:30:41;101385.16;;;1.10;77.91
37852;BME280;23691;52.486;4.650;2022-12-16T05:33:50;101388.75;;;1.09;77.98
37852;BME280;23691;52.486;4.650;2022-12-16T05:36:59;101385.16;;;1.10;78.06
37852;BME280;23691;52.486;4.650;2022-12-16T05:40:11;101388.56;;;1.12;77.90
37852;BME280;23691;52.486;4.650;2022-12-16T05:43:21;101402.50;;;1.14;77.82
37852;BME280;23691;52.486;4.650;2022-12-16T05:46:31;101402.41;;;1.15;77.94
37852;BME280;23691;52.486;4.650;2022-12-16T05:49:40;101399.59;;;1.18;78.10
37852;BME280;23691;52.486;4.650;2022-12-16T05:52:52;101405.63;;;1.20;78.01
37852;BME280;23691;52.486;4.650;2022-12-16T05:56:02;101416.06;;;1.22;78.03
37852;BME280;23691;52.486;4.650;2022-12-16T05:59:15;101418.63;;;1.23;77.79
37852;BME280;23691;52.486;4.650;2022-12-16T06:02:24;101423.03;;;1.23;78.04
37852;BME280;23691;52.486;4.650;2022-12-16T06:05:33;101424.00;;;1.22;78.24
37852;BME280;23691;52.486;4.650;2022-12-16T06:08:42;101431.06;;;1.21;77.86
37852;BME280;23691;52.486;4.650;2022-12-16T06:11:51;101436.31;;;1.21;78.17
37852;BME280;23691;52.486;4.650;2022-12-16T06:15:08;101435.28;;;1.24;78.33
37852;BME280;23691;52.486;4.650;2022-12-16T06:18:17;101427.28;;;1.25;78.24
37852;BME280;23691;52.486;4.650;2022-12-16T06:21:26;101435.03;;;1.28;78.20
37852;BME280;23691;52.486;4.650;2022-12-16T06:24:35;101438.50;;;1.29;78.04
37852;BME280;23691;52.486;4.650;2022-12-16T06:27:52;101430.78;;;1.26;78.12
37852;BME280;23691;52.486;4.650;2022-12-16T06:31:01;101430.03;;;1.24;78.34
37852;BME280;23691;52.486;4.650;2022-12-16T06:34:10;101442.44;;;1.22;78.34
37852;BME280;23691;52.486;4.650;2022-12-16T06:37:19;101445.16;;;1.20;78.10
37852;BME280;23691;52.486;4.650;2022-12-16T06:40:28;101451.56;;;1.16;77.96
37852;BME280;23691;52.486;4.650;2022-12-16T06:43:37;101444.75;;;1.12;78.35
37852;BME280;23691;52.486;4.650;2022-12-16T06:46:46;101449.25;;;1.10;78.11
37852;BME280;23691;52.486;4.650;2022-12-16T06:49:56;101447.66;;;1.07;78.25
37852;BME280;23691;52.486;4.650;2022-12-16T06:53:05;101450.47;;;1.04;78.11
37852;BME280;23691;52.486;4.650;2022-12-16T06:56:15;101461.28;;;1.00;78.35
37852;BME280;23691;52.486;4.650;2022-12-16T06:59:24;101461.66;;;0.94;78.20
37852;BME280;23691;52.486;4.650;2022-12-16T07:02:34;101475.16;;;0.88;78.28
37852;BME280;23691;52.486;4.650;2022-12-16T07:05:43;101482.47;;;0.82;78.48
37852;BME280;23691;52.486;4.650;2022-12-16T07:38:06;101527.94;;;0.54;78.71
37852;BME280;23691;52.486;4.650;2022-12-16T07:41:14;101534.81;;;0.57;78.23
37852;BME280;23691;52.486;4.650;2022-12-16T07:44:23;101532.06;;;0.58;78.38
37852;BME280;23691;52.486;4.650;2022-12-16T07:47:32;101538.34;;;0.56;78.08
37852;BME280;23691;52.486;4.650;2022-12-16T07:50:41;101544.56;;;0.55;78.37
37852;BME280;23691;52.486;4.650;2022-12-16T07:53:50;101550.75;;;0.54;78.38
37852;BME280;23691;52.486;4.650;2022-12-16T07:56:59;101551.63;;;0.54;78.14
37852;BME280;23691;52.486;4.650;2022-12-16T08:00:09;101557.72;;;0.55;78.23
37852;BME280;23691;52.486;4.650;2022-12-16T08:03:18;101555.00;;;0.56;78.17
37852;BME280;23691;52.486;4.650;2022-12-16T08:06:27;101575.16;;;0.57;78.38
37852;BME280;23691;52.486;4.650;2022-12-16T08:09:36;101576.84;;;0.58;77.92
37852;BME280;23691;52.486;4.650;2022-12-16T08:12:45;101580.25;;;0.60;78.20
37852;BME280;23691;52.486;4.650;2022-12-16T08:15:54;101587.13;;;0.63;78.23
37852;BME280;23691;52.486;4.650;2022-12-16T08:19:03;101587.84;;;0.67;78.20
37852;BME280;23691;52.486;4.650;2022-12-16T08:22:12;101594.53;;;0.72;77.99
37852;BME280;23691;52.486;4.650;2022-12-16T08:25:22;101602.28;;;0.75;78.04
37852;BME280;23691;52.486;4.650;2022-12-16T08:28:32;101592.44;;;0.79;77.97
37852;BME280;23691;52.486;4.650;2022-12-16T08:31:41;101598.44;;;0.81;78.10
37852;BME280;23691;52.486;4.650;2022-12-16T08:34:50;101598.13;;;0.87;78.33
37852;BME280;23691;52.486;4.650;2022-12-16T08:37:59;101596.16;;;0.91;77.92
37852;BME280;23691;52.486;4.650;2022-12-16T08:41:08;101604.06;;;0.91;78.12
37852;BME280;23691;52.486;4.650;2022-12-16T08:44:17;101601.28;;;0.94;78.22
37852;BME280;23691;52.486;4.650;2022-12-16T08:47:26;101597.53;;;0.98;77.93
37852;BME280;23691;52.486;4.650;2022-12-16T08:50:35;101598.22;;;1.01;77.91
37852;BME280;23691;52.486;4.650;2022-12-16T08:53:45;101606.03;;;1.03;78.32
37852;BME280;23691;52.486;4.650;2022-12-16T08:56:54;101608.59;;;1.04;78.17
37852;BME280;23691;52.486;4.650;2022-12-16T09:00:05;101609.38;;;1.06;77.93
37852;BME280;23691;52.486;4.650;2022-12-16T09:03:16;101612.66;;;1.10;78.29
37852;BME280;23691;52.486;4.650;2022-12-16T09:06:25;101613.19;;;1.17;77.73
37852;BME280;23691;52.486;4.650;2022-12-16T09:09:35;101618.28;;;1.20;78.01
37852;BME280;23691;52.486;4.650;2022-12-16T09:12:45;101622.47;;;1.24;78.01
37852;BME280;23691;52.486;4.650;2022-12-16T09:15:54;101621.19;;;1.31;78.11
37852;BME280;23691;52.486;4.650;2022-12-16T09:19:04;101638.38;;;1.38;77.98
37852;BME280;23691;52.486;4.650;2022-12-16T09:22:13;101638.00;;;1.44;78.04
37852;BME280;23691;52.486;4.650;2022-12-16T09:25:22;101643.09;;;1.47;77.88
37852;BME280;23691;52.486;4.650;2022-12-16T09:28:39;101646.44;;;1.51;77.97
37852;BME280;23691;52.486;4.650;2022-12-16T09:31:48;101641.69;;;1.58;77.80
37852;BME280;23691;52.486;4.650;2022-12-16T09:34:57;101649.22;;;1.64;77.66
37852;BME280;23691;52.486;4.650;2022-12-16T09:38:06;101653.47;;;1.66;77.87
37852;BME280;23691;52.486;4.650;2022-12-16T09:41:34;101655.69;;;1.74;77.83
37852;BME280;23691;52.486;4.650;2022-12-16T09:45:14;101667.59;;;1.81;77.55
37852;BME280;23691;52.486;4.650;2022-12-16T09:48:37;101669.31;;;1.82;77.56
37852;BME280;23691;52.486;4.650;2022-12-16T09:51:51;101674.22;;;1.88;77.56
37852;BME280;23691;52.486;4.650;2022-12-16T09:55:03;101666.88;;;1.93;77.47
37852;BME280;23691;52.486;4.650;2022-12-16T09:58:14;101677.00;;;2.01;77.48
37852;BME280;23691;52.486;4.650;2022-12-16T10:01:25;101675.81;;;2.07;77.57
37852;BME280;23691;52.486;4.650;2022-12-16T10:04:35;101684.19;;;2.13;77.12
37852;BME280;23691;52.486;4.650;2022-12-16T10:07:53;101681.22;;;2.20;77.36
37852;BME280;23691;52.486;4.650;2022-12-16T10:11:21;101686.81;;;2.29;76.74
37852;BME280;23691;52.486;4.650;2022-12-16T10:14:38;101689.91;;;2.36;76.45
37852;BME280;23691;52.486;4.650;2022-12-16T10:17:50;101691.25;;;2.43;76.33
37852;BME280;23691;52.486;4.650;2022-12-16T10:20:59;101693.53;;;2.49;76.34
37852;BME280;23691;52.486;4.650;2022-12-16T10:27:43;101706.09;;;2.60;76.05
37852;BME280;23691;52.486;4.650;2022-12-16T10:30:54;101702.22;;;2.66;75.87
37852;BME280;23691;52.486;4.650;2022-12-16T10:34:10;101700.06;;;2.72;75.72
37852;BME280;23691;52.486;4.650;2022-12-16T10:37:31;101697.94;;;2.79;75.98
37852;BME280;23691;52.486;4.650;2022-12-16T10:40:41;101694.16;;;2.83;75.12
37852;BME280;23691;52.486;4.650;2022-12-16T10:43:52;101699.06;;;2.89;75.25
37852;BME280;23691;52.486;4.650;2022-12-16T10:47:10;101700.47;;;2.95;74.59
37852;BME280;23691;52.486;4.650;2022-12-16T10:50:19;101697.66;;;2.98;74.79
37852;BME280;23691;52.486;4.650;2022-12-16T10:53:29;101693.97;;;3.00;74.40
37852;BME280;23691;52.486;4.650;2022-12-16T10:56:53;101701.72;;;3.04;74.25
37852;BME280;23691;52.486;4.650;2022-12-16T11:00:18;101705.88;;;3.08;73.71
37852;BME280;23691;52.486;4.650;2022-12-16T11:03:33;101706.53;;;3.11;73.65
37852;BME280;23691;52.486;4.650;2022-12-16T11:06:42;101704.63;;;3.13;73.57
37852;BME280;23691;52.486;4.650;2022-12-16T11:09:53;101705.56;;;3.12;73.27
37852;BME280;23691;52.486;4.650;2022-12-16T11:16:28;101711.59;;;3.14;73.02
37852;BME280;23691;52.486;4.650;2022-12-16T11:19:37;101710.47;;;3.18;72.62
37852;BME280;23691;52.486;4.650;2022-12-16T11:22:46;101719.25;;;3.19;72.48
37852;BME280;23691;52.486;4.650;2022-12-16T11:29:19;101722.38;;;3.26;72.46
37852;BME280;23691;52.486;4.650;2022-12-16T11:32:29;101730.13;;;3.29;72.13
37852;BME280;23691;52.486;4.650;2022-12-16T11:35:41;101731.81;;;3.30;71.79
37852;BME280;23691;52.486;4.650;2022-12-16T11:38:52;101737.00;;;3.31;71.67
37852;BME280;23691;52.486;4.650;2022-12-16T11:42:18;101740.34;;;3.35;71.38
37852;BME280;23691;52.486;4.650;2022-12-16T11:45:28;101737.50;;;3.38;71.35
37852;BME280;23691;52.486;4.650;2022-12-16T11:48:43;101736.31;;;3.42;70.84
37852;BME280;23691;52.486;4.650;2022-12-16T11:51:56;101741.44;;;3.45;70.54
37852;BME280;23691;52.486;4.650;2022-12-16T11:55:20;101735.97;;;3.48;70.58
37852;BME280;23691;52.486;4.650;2022-12-16T11:58:39;101735.75;;;3.51;69.99
37852;BME280;23691;52.486;4.650;2022-12-16T12:01:54;101732.28;;;3.51;69.73
37852;BME280;23691;52.486;4.650;2022-12-16T12:05:05;101739.44;;;3.49;69.55
37852;BME280;23691;52.486;4.650;2022-12-16T12:08:22;101739.44;;;3.49;69.40
37852;BME280;23691;52.486;4.650;2022-12-16T12:11:48;101738.59;;;3.48;69.46
37852;BME280;23691;52.486;4.650;2022-12-16T12:15:19;101743.97;;;3.47;69.75
37852;BME280;23691;52.486;4.650;2022-12-16T12:18:40;101743.06;;;3.48;69.66
37852;BME280;23691;52.486;4.650;2022-12-16T12:22:00;101756.44;;;3.44;69.43
37852;BME280;23691;52.486;4.650;2022-12-16T12:25:24;101743.34;;;3.43;69.01
37852;BME280;23691;52.486;4.650;2022-12-16T12:28:47;101749.47;;;3.43;69.21
37852;BME280;23691;52.486;4.650;2022-12-16T12:32:24;101751.28;;;3.43;68.75
37852;BME280;23691;52.486;4.650;2022-12-16T12:42:37;101753.06;;;3.42;68.65
37852;BME280;23691;52.486;4.650;2022-12-16T12:49:42;101752.19;;;3.42;68.68
37852;BME280;23691;52.486;4.650;2022-12-16T12:56:47;101767.34;;;3.40;68.35
37852;BME280;23691;52.486;4.650;2022-12-16T13:00:00;101767.44;;;3.38;68.22
37852;BME280;23691;52.486;4.650;2022-12-16T13:04:11;101756.75;;;3.40;68.33
37852;BME280;23691;52.486;4.650;2022-12-16T13:06:59;101766.47;;;3.39;68.13
37852;BME280;23691;52.486;4.650;2022-12-16T13:13:34;101780.47;;;3.41;67.91
37852;BME280;23691;52.486;4.650;2022-12-16T13:16:59;101781.13;;;3.45;67.71
37852;BME280;23691;52.486;4.650;2022-12-16T13:19:43;101767.22;;;3.41;67.81
37852;BME280;23691;52.486;4.650;2022-12-16T13:22:36;101768.94;;;3.42;67.38
37852;BME280;23691;52.486;4.650;2022-12-16T13:25:50;101768.84;;;3.44;67.82
37852;BME280;23691;52.486;4.650;2022-12-16T13:32:02;101767.22;;;3.41;67.79
37852;BME280;23691;52.486;4.650;2022-12-16T13:40:59;101775.09;;;3.43;66.77
37852;BME280;23691;52.486;4.650;2022-12-16T13:43:58;101771.59;;;3.42;67.06
37852;BME280;23691;52.486;4.650;2022-12-16T13:46:47;101778.78;;;3.40;66.67
37852;BME280;23691;52.486;4.650;2022-12-16T13:52:56;101791.03;;;3.41;66.68
37852;BME280;23691;52.486;4.650;2022-12-16T13:55:54;101790.19;;;3.41;66.55
37852;BME280;23691;52.486;4.650;2022-12-16T13:58:46;101793.88;;;3.38;66.55
37852;BME280;23691;52.486;4.650;2022-12-16T14:01:56;101792.94;;;3.39;66.49
37852;BME280;23691;52.486;4.650;2022-12-16T14:04:46;101800.13;;;3.37;66.59
37852;BME280;23691;52.486;4.650;2022-12-16T14:07:33;101799.38;;;3.35;66.13
37852;BME280;23691;52.486;4.650;2022-12-16T14:10:26;101805.50;;;3.36;66.28
37852;BME280;23691;52.486;4.650;2022-12-16T14:13:21;101808.22;;;3.34;66.30
37852;BME280;23691;52.486;4.650;2022-12-16T14:16:31;101814.41;;;3.35;66.36
37852;BME280;23691;52.486;4.650;2022-12-16T14:19:50;101809.28;;;3.32;66.29
37852;BME280;23691;52.486;4.650;2022-12-16T14:25:55;101816.63;;;3.27;66.21
37852;BME280;23691;52.486;4.650;2022-12-16T14:28:39;101813.34;;;3.23;66.32
37852;BME280;23691;52.486;4.650;2022-12-16T14:31:29;101822.31;;;3.20;66.63
37852;BME280;23691;52.486;4.650;2022-12-16T14:34:18;101814.53;;;3.17;66.48
37852;BME280;23691;52.486;4.650;2022-12-16T14:37:12;101825.25;;;3.16;66.62
37852;BME280;23691;52.486;4.650;2022-12-16T14:39:57;101821.00;;;3.13;66.89
37852;BME280;23691;52.486;4.650;2022-12-16T14:42:41;101824.28;;;3.17;66.47
37852;BME280;23691;52.486;4.650;2022-12-16T14:45:33;101831.38;;;3.16;66.71
37852;BME280;23691;52.486;4.650;2022-12-16T14:48:25;101836.00;;;3.13;66.80
37852;BME280;23691;52.486;4.650;2022-12-16T14:54:41;101847.91;;;3.06;67.16
37852;BME280;23691;52.486;4.650;2022-12-16T14:57:31;101849.00;;;3.01;67.34
37852;BME280;23691;52.486;4.650;2022-12-16T15:00:22;101850.88;;;2.99;66.99
37852;BME280;23691;52.486;4.650;2022-12-16T15:06:15;101871.63;;;2.91;67.00
37852;BME280;23691;52.486;4.650;2022-12-16T15:09:03;101870.94;;;2.88;67.43
37852;BME280;23691;52.486;4.650;2022-12-16T15:11:50;101871.31;;;2.82;67.60
37852;BME280;23691;52.486;4.650;2022-12-16T15:14:38;101871.59;;;2.77;67.81
37852;BME280;23691;52.486;4.650;2022-12-16T15:17:32;101877.97;;;2.73;67.83
37852;BME280;23691;52.486;4.650;2022-12-16T15:20:23;101881.06;;;2.65;67.73
37852;BME280;23691;52.486;4.650;2022-12-16T15:23:37;101885.00;;;2.58;67.92
37852;BME280;23691;52.486;4.650;2022-12-16T15:26:24;101893.47;;;2.49;68.27
37852;BME280;23691;52.486;4.650;2022-12-16T15:29:27;101892.78;;;2.45;68.27
37852;BME280;23691;52.486;4.650;2022-12-16T15:38:20;101894.72;;;2.26;68.62
37852;BME280;23691;52.486;4.650;2022-12-16T15:41:19;101897.78;;;2.18;68.98
37852;BME280;23691;52.486;4.650;2022-12-16T15:44:03;101900.78;;;2.12;69.34
37852;BME280;23691;52.486;4.650;2022-12-16T15:46:47;101900.25;;;2.05;69.34
37852;BME280;23691;52.486;4.650;2022-12-16T15:49:33;101904.00;;;2.01;69.48
37852;BME280;23691;52.486;4.650;2022-12-16T15:55:32;101915.22;;;1.89;70.00
37852;BME280;23691;52.486;4.650;2022-12-16T16:01:04;101923.72;;;1.78;70.12
37852;BME280;23691;52.486;4.650;2022-12-16T16:03:53;101929.31;;;1.72;69.71
37852;BME280;23691;52.486;4.650;2022-12-16T16:06:40;101929.56;;;1.67;70.39
37852;BME280;23691;52.486;4.650;2022-12-16T16:09:28;101926.28;;;1.62;70.62
37852;BME280;23691;52.486;4.650;2022-12-16T16:12:16;101922.19;;;1.57;70.26
37852;BME280;23691;52.486;4.650;2022-12-16T16:15:01;101935.63;;;1.52;70.76
37852;BME280;23691;52.486;4.650;2022-12-16T16:17:47;101939.38;;;1.48;70.59
37852;BME280;23691;52.486;4.650;2022-12-16T16:20:33;101938.66;;;1.44;70.93
37852;BME280;23691;52.486;4.650;2022-12-16T16:23:17;101935.25;;;1.42;70.67
37852;BME280;23691;52.486;4.650;2022-12-16T16:26:01;101939.91;;;1.37;70.90
37852;BME280;23691;52.486;4.650;2022-12-16T16:28:45;101945.34;;;1.34;70.86
37852;BME280;23691;52.486;4.650;2022-12-16T16:31:29;101949.16;;;1.28;70.89
37852;BME280;23691;52.486;4.650;2022-12-16T16:34:13;101957.13;;;1.27;71.66
37852;BME280;23691;52.486;4.650;2022-12-16T16:36:57;101956.34;;;1.25;71.29
37852;BME280;23691;52.486;4.650;2022-12-16T16:39:42;101954.72;;;1.22;71.28
37852;BME280;23691;52.486;4.650;2022-12-16T16:42:27;101947.81;;;1.20;71.47
37852;BME280;23691;52.486;4.650;2022-12-16T16:45:11;101953.25;;;1.17;71.38
37852;BME280;23691;52.486;4.650;2022-12-16T16:48:08;101960.38;;;1.15;71.44
37852;BME280;23691;52.486;4.650;2022-12-16T16:50:55;101961.53;;;1.09;71.52
37852;BME280;23691;52.486;4.650;2022-12-16T16:53:39;101962.53;;;1.06;71.77
37852;BME280;23691;52.486;4.650;2022-12-16T16:56:24;101967.88;;;1.05;71.84
37852;BME280;23691;52.486;4.650;2022-12-16T16:59:10;101981.22;;;1.02;71.84
37852;BME280;23691;52.486;4.650;2022-12-16T17:01:55;101984.91;;;0.98;72.11
37852;BME280;23691;52.486;4.650;2022-12-16T17:04:39;101983.28;;;0.95;72.05
37852;BME280;23691;52.486;4.650;2022-12-16T17:07:23;101979.00;;;0.93;72.23
37852;BME280;23691;52.486;4.650;2022-12-16T17:10:08;101979.97;;;0.92;72.02
37852;BME280;23691;52.486;4.650;2022-12-16T17:12:52;101982.72;;;0.89;72.35
37852;BME280;23691;52.486;4.650;2022-12-16T17:15:36;101988.16;;;0.85;72.71
37852;BME280;23691;52.486;4.650;2022-12-16T17:18:21;101990.00;;;0.83;72.80
37852;BME280;23691;52.486;4.650;2022-12-16T17:21:05;101997.13;;;0.81;72.89
37852;BME280;23691;52.486;4.650;2022-12-16T17:23:49;101998.84;;;0.82;72.62
37852;BME280;23691;52.486;4.650;2022-12-16T17:26:33;101993.72;;;0.79;72.66
37852;BME280;23691;52.486;4.650;2022-12-16T17:29:20;102001.69;;;0.78;72.70
37852;BME280;23691;52.486;4.650;2022-12-16T17:32:05;102000.91;;;0.76;73.00
37852;BME280;23691;52.486;4.650;2022-12-16T17:34:49;102006.31;;;0.73;73.15
37852;BME280;23691;52.486;4.650;2022-12-16T17:37:34;102014.28;;;0.71;72.89
37852;BME280;23691;52.486;4.650;2022-12-16T17:40:18;102021.50;;;0.68;73.19
37852;BME280;23691;52.486;4.650;2022-12-16T17:43:01;102024.19;;;0.66;73.03
37852;BME280;23691;52.486;4.650;2022-12-16T17:45:59;102015.44;;;0.66;73.29
37852;BME280;23691;52.486;4.650;2022-12-16T17:48:43;102027.91;;;0.62;73.52
37852;BME280;23691;52.486;4.650;2022-12-16T17:51:28;102014.94;;;0.57;73.53